createdAt,value
2019-05-22T00:00:24.968Z,17.07
2019-05-22T00:02:52.528Z,16.73
2019-05-22T00:05:26.436Z,16.60
2019-05-22T00:07:54.605Z,16.63
2019-05-22T00:10:25.289Z,17.83
2019-05-22T00:12:53.645Z,18.30
2019-05-22T00:15:23.535Z,17.63
2019-05-22T00:17:50.997Z,18.73
2019-05-22T00:20:22.627Z,17.47
2019-05-22T00:22:51.733Z,17.10
2019-05-22T00:25:23.552Z,15.70
2019-05-22T00:27:53.152Z,16.10
2019-05-22T00:30:25.048Z,15.77
2019-05-22T00:32:53.140Z,15.20
2019-05-22T00:35:23.163Z,15.63
2019-05-22T00:37:50.337Z,16.27
2019-05-22T00:40:19.815Z,15.87
2019-05-22T00:43:03.835Z,18.27
2019-05-22T00:45:20.496Z,17.70
2019-05-22T00:47:50.732Z,17.50
2019-05-22T00:50:23.884Z,17.17
2019-05-22T00:53:23.480Z,17.73
2019-05-22T00:56:22.470Z,18.83
2019-05-22T00:58:57.539Z,17.03
2019-05-22T01:01:36.773Z,17.03
2019-05-22T01:04:04.673Z,17.47
2019-05-22T01:06:34.598Z,18.30
2019-05-22T01:09:05.716Z,19.00
2019-05-22T01:11:32.886Z,18.03
2019-05-22T01:14:01.366Z,19.07
2019-05-22T01:16:29.636Z,17.87
2019-05-22T01:18:57.035Z,17.57
2019-05-22T01:21:25.292Z,17.80
2019-05-22T01:23:55.038Z,18.53
2019-05-22T01:26:24.733Z,18.47
2019-05-22T01:28:52.484Z,18.83
2019-05-22T01:31:28.901Z,20.10
2019-05-22T01:34:02.829Z,19.00
2019-05-22T01:36:39.765Z,18.90
2019-05-22T01:39:34.972Z,19.40
2019-05-22T01:42:04.063Z,19.23
2019-05-22T01:44:33.737Z,19.37
2019-05-22T01:47:06.523Z,19.47
2019-05-22T01:49:38.072Z,18.60
2019-05-22T01:52:06.171Z,19.60
2019-05-22T01:54:33.708Z,18.53
2019-05-22T01:57:06.580Z,18.10
2019-05-22T01:59:36.048Z,18.63
2019-05-22T02:02:04.039Z,19.17
2019-05-22T02:04:33.135Z,19.23
2019-05-22T02:07:00.813Z,18.37
2019-05-22T02:09:33.152Z,18.97
2019-05-22T02:12:13.075Z,18.40
2019-05-22T02:14:45.656Z,17.47
2019-05-22T02:17:15.220Z,17.20
2019-05-22T02:19:43.096Z,18.47
2019-05-22T02:22:14.393Z,17.53
2019-05-22T02:24:43.228Z,18.20
2019-05-22T02:27:12.532Z,17.33
2019-05-22T02:29:40.265Z,17.83
2019-05-22T02:32:10.649Z,18.30
2019-05-22T02:34:37.717Z,17.43
2019-05-22T02:37:07.125Z,18.60
2019-05-22T02:39:37.063Z,17.47
2019-05-22T02:42:12.409Z,17.53
2019-05-22T02:44:40.568Z,18.30
2019-05-22T02:47:19.174Z,17.30
2019-05-22T02:49:39.397Z,16.87
2019-05-22T02:52:08.475Z,18.00
2019-05-22T02:54:36.659Z,18.00
2019-05-22T02:57:04.620Z,18.03
2019-05-22T02:59:31.997Z,18.30
2019-05-22T03:02:00.590Z,18.30
2019-05-22T03:04:50.686Z,19.03
2019-05-22T03:07:18.249Z,18.83
2019-05-22T03:09:46.764Z,18.17
2019-05-22T03:12:15.413Z,18.93
2019-05-22T03:14:43.097Z,18.53
2019-05-22T03:17:24.345Z,17.47
2019-05-22T03:19:52.510Z,18.83
2019-05-22T03:22:23.563Z,18.27
2019-05-22T03:24:52.381Z,18.30
2019-05-22T03:27:30.023Z,18.17
2019-05-22T03:29:58.704Z,19.07
2019-05-22T03:32:26.223Z,18.73
2019-05-22T03:34:54.469Z,19.80
2019-05-22T03:37:22.332Z,18.03
2019-05-22T03:39:49.852Z,19.77
2019-05-22T03:42:18.833Z,19.67
2019-05-22T03:44:47.097Z,20.13
2019-05-22T03:47:15.673Z,20.13
2019-05-22T03:49:44.240Z,20.80
2019-05-22T03:52:12.369Z,19.90
2019-05-22T03:54:41.481Z,19.80
2019-05-22T03:57:09.769Z,19.93
2019-05-22T03:59:37.623Z,19.53
2019-05-22T04:02:05.913Z,21.50
2019-05-22T04:04:39.233Z,20.57
2019-05-22T04:07:10.384Z,20.63
2019-05-22T04:09:40.004Z,20.47
2019-05-22T04:12:10.097Z,22.03
2019-05-22T04:14:39.599Z,21.13
2019-05-22T04:17:10.299Z,20.73
2019-05-22T04:19:49.507Z,19.83
2019-05-22T04:22:08.859Z,20.47
2019-05-22T04:24:55.968Z,20.37
2019-05-22T04:27:23.857Z,21.00
2019-05-22T04:30:15.300Z,20.57
2019-05-22T04:32:45.674Z,20.67
2019-05-22T04:35:16.736Z,20.03
2019-05-22T04:37:46.400Z,20.47
2019-05-22T04:40:59.437Z,19.90
2019-05-22T04:43:32.242Z,19.70
2019-05-22T04:46:00.369Z,19.00
2019-05-22T04:48:30.737Z,19.70
2019-05-22T04:51:25.685Z,17.90
2019-05-22T04:53:53.956Z,19.20
2019-05-22T04:56:22.097Z,16.50
2019-05-22T04:58:49.174Z,15.47
2019-05-22T05:01:19.153Z,16.07
2019-05-22T05:03:47.021Z,16.10
2019-05-22T05:06:16.304Z,15.00
2019-05-22T05:08:43.996Z,13.30
2019-05-22T05:11:11.801Z,12.73
2019-05-22T05:13:38.913Z,13.23
2019-05-22T05:16:06.756Z,12.93
2019-05-22T05:18:35.526Z,12.53
2019-05-22T05:21:02.682Z,11.97
2019-05-22T05:23:31.144Z,11.37
2019-05-22T05:25:58.624Z,11.20
2019-05-22T05:28:26.507Z,11.53
2019-05-22T05:30:54.401Z,11.33
2019-05-22T05:33:23.081Z,12.57
2019-05-22T05:35:50.548Z,13.30
2019-05-22T05:38:22.840Z,13.13
2019-05-22T05:40:50.403Z,13.57
2019-05-22T05:43:18.572Z,14.07
2019-05-22T05:45:48.543Z,13.27
2019-05-22T05:48:20.077Z,14.47
2019-05-22T05:51:38.764Z,15.23
2019-05-22T05:54:12.020Z,15.83
2019-05-22T05:56:40.596Z,15.47
2019-05-22T05:59:09.372Z,15.27
2019-05-22T06:01:41.301Z,15.43
2019-05-22T06:04:08.756Z,16.40
2019-05-22T06:07:16.370Z,14.40
2019-05-22T06:09:47.605Z,13.70
2019-05-22T06:12:15.500Z,13.63
2019-05-22T06:14:42.648Z,11.50
2019-05-22T06:17:46.700Z,11.17
2019-05-22T06:20:18.332Z,8.23
2019-05-22T06:23:28.400Z,8.80
2019-05-22T06:25:57.878Z,8.43
2019-05-22T06:28:28.030Z,8.60
2019-05-22T06:30:57.204Z,7.10
2019-05-22T06:33:30.536Z,6.10
2019-05-22T06:36:00.152Z,6.20
2019-05-22T06:38:54.618Z,6.80
2019-05-22T06:41:28.457Z,6.20
2019-05-22T06:44:31.586Z,6.87
2019-05-22T06:47:00.282Z,7.57
2019-05-22T06:49:39.544Z,6.93
2019-05-22T06:52:07.227Z,7.33
2019-05-22T06:54:35.781Z,7.10
2019-05-22T06:57:05.109Z,7.67
2019-05-22T06:59:32.264Z,7.07
2019-05-22T07:02:01.754Z,8.07
2019-05-22T07:04:29.701Z,8.77
2019-05-22T07:06:57.567Z,9.00
2019-05-22T07:09:25.828Z,9.00
2019-05-22T07:11:54.484Z,8.37
2019-05-22T07:14:23.741Z,7.70
2019-05-22T07:16:52.204Z,7.83
2019-05-22T07:19:20.876Z,7.60
2019-05-22T07:21:50.472Z,7.50
2019-05-22T07:24:19.553Z,7.30
2019-05-22T07:26:47.196Z,7.60
2019-05-22T07:29:16.168Z,7.33
2019-05-22T07:31:45.233Z,7.20
2019-05-22T07:34:13.417Z,6.33
2019-05-22T07:36:40.977Z,7.27
2019-05-22T07:39:09.248Z,7.27
2019-05-22T07:41:37.017Z,7.80
2019-05-22T07:44:04.873Z,7.10
2019-05-22T07:46:33.232Z,7.67
2019-05-22T07:49:00.381Z,7.23
2019-05-22T07:51:28.474Z,7.60
2019-05-22T07:53:55.919Z,6.73
2019-05-22T07:56:23.601Z,7.70
2019-05-22T07:58:51.761Z,9.20
2019-05-22T08:01:19.546Z,9.47
2019-05-22T08:03:48.328Z,10.17
2019-05-22T08:06:15.990Z,10.33
2019-05-22T08:08:44.704Z,11.47
2019-05-22T08:11:12.760Z,12.67
2019-05-22T08:13:40.547Z,12.00
2019-05-22T08:16:08.901Z,11.43
2019-05-22T08:18:38.380Z,11.67
2019-05-22T08:21:06.834Z,11.80
2019-05-22T08:23:35.332Z,12.20
2019-05-22T08:26:03.613Z,10.83
2019-05-22T08:28:32.687Z,11.83
2019-05-22T08:31:02.696Z,12.23
2019-05-22T08:33:31.704Z,12.07
2019-05-22T08:35:59.579Z,12.07
2019-05-22T08:38:29.316Z,11.43
2019-05-22T08:40:58.530Z,11.17
2019-05-22T08:43:26.173Z,12.97
2019-05-22T08:45:53.939Z,11.60
2019-05-22T08:48:21.814Z,12.23
2019-05-22T08:50:49.490Z,11.63
2019-05-22T08:53:18.755Z,11.30
2019-05-22T08:55:46.601Z,11.83
2019-05-22T08:58:15.232Z,11.53
2019-05-22T09:00:43.377Z,11.13
2019-05-22T09:03:10.812Z,11.40
2019-05-22T09:05:38.058Z,11.60
2019-05-22T09:08:05.223Z,10.43
2019-05-22T09:10:33.280Z,11.67
2019-05-22T09:13:00.458Z,11.97
2019-05-22T09:15:29.570Z,12.20
2019-05-22T09:17:57.753Z,11.73
2019-05-22T09:20:25.144Z,11.17
2019-05-22T09:22:52.816Z,8.90
2019-05-22T09:25:19.883Z,9.30
2019-05-22T09:27:47.669Z,10.60
2019-05-22T09:30:16.824Z,10.13
2019-05-22T09:32:47.426Z,10.47
2019-05-22T09:35:14.101Z,9.83
2019-05-22T09:37:41.284Z,9.73
2019-05-22T09:40:09.036Z,11.40
2019-05-22T09:42:36.308Z,10.50
2019-05-22T09:45:05.575Z,11.60
2019-05-22T09:47:33.272Z,11.03
2019-05-22T09:50:00.925Z,11.40
2019-05-22T09:52:27.993Z,11.33
2019-05-22T09:54:55.476Z,13.27
2019-05-22T09:57:22.828Z,13.47
2019-05-22T09:59:50.002Z,12.90
2019-05-22T10:02:18.663Z,12.20
2019-05-22T10:04:46.041Z,12.70
2019-05-22T10:07:13.291Z,12.60
2019-05-22T10:09:41.061Z,11.87
2019-05-22T10:12:08.536Z,12.70
2019-05-22T10:14:36.643Z,11.50
2019-05-22T10:17:03.925Z,13.17
2019-05-22T10:19:32.408Z,12.43
2019-05-22T10:21:59.875Z,12.23
2019-05-22T10:24:27.444Z,12.10
2019-05-22T10:26:55.905Z,13.27
2019-05-22T10:29:23.456Z,13.47
2019-05-22T10:31:50.621Z,13.97
2019-05-22T10:34:17.776Z,14.57
2019-05-22T10:36:44.987Z,13.47
2019-05-22T10:39:12.462Z,13.93
2019-05-22T10:41:39.812Z,13.33
2019-05-22T10:44:07.504Z,14.50
2019-05-22T10:46:35.354Z,13.43
2019-05-22T10:49:03.236Z,14.70
2019-05-22T10:51:30.386Z,14.47
2019-05-22T10:53:58.137Z,12.70
2019-05-22T10:56:26.410Z,12.93
2019-05-22T10:58:53.765Z,12.53
2019-05-22T11:01:22.524Z,13.40
2019-05-22T11:03:50.100Z,12.90
2019-05-22T11:06:18.278Z,13.63
2019-05-22T11:08:45.938Z,15.37
2019-05-22T11:11:14.391Z,15.73
2019-05-22T11:13:41.653Z,15.50
2019-05-22T11:16:10.562Z,15.03
2019-05-22T11:18:38.079Z,16.13
2019-05-22T11:21:06.156Z,16.67
2019-05-22T11:23:50.038Z,17.67
2019-05-22T11:26:02.802Z,17.97
2019-05-22T11:28:30.568Z,18.17
2019-05-22T11:30:58.477Z,17.27
2019-05-22T11:33:25.984Z,17.37
2019-05-22T11:35:53.932Z,17.73
2019-05-22T11:38:21.196Z,16.87
2019-05-22T11:40:48.459Z,16.67
2019-05-22T11:43:15.541Z,16.33
2019-05-22T11:45:45.183Z,16.97
2019-05-22T11:48:11.864Z,15.37
2019-05-22T11:50:40.736Z,16.67
2019-05-22T11:53:08.367Z,16.93
2019-05-22T11:55:45.112Z,15.90
2019-05-22T11:58:06.353Z,15.97
2019-05-22T12:00:33.633Z,16.37
2019-05-22T12:03:02.400Z,18.77
2019-05-22T12:05:31.133Z,17.13
2019-05-22T12:07:58.412Z,14.17
2019-05-22T12:10:25.555Z,13.67
2019-05-22T12:12:53.714Z,13.80
2019-05-22T12:15:24.378Z,14.00
2019-05-22T12:17:52.981Z,13.63
2019-05-22T12:20:23.664Z,14.13
2019-05-22T12:22:50.954Z,15.37
2019-05-22T12:25:18.616Z,13.80
2019-05-22T12:27:46.497Z,16.20
2019-05-22T12:30:16.154Z,15.63
2019-05-22T12:32:44.667Z,16.30
2019-05-22T12:35:14.324Z,15.67
2019-05-22T12:37:42.452Z,16.80
2019-05-22T12:40:12.460Z,15.67
2019-05-22T12:42:39.723Z,15.27
2019-05-22T12:45:09.693Z,15.63
2019-05-22T12:47:38.056Z,16.43
2019-05-22T12:50:05.543Z,14.70
2019-05-22T12:52:33.315Z,14.30
2019-05-22T12:55:00.453Z,13.93
2019-05-22T12:57:28.708Z,12.93
2019-05-22T13:00:01.065Z,12.07
2019-05-22T13:02:26.769Z,11.13
2019-05-22T13:04:54.137Z,12.20
2019-05-22T13:07:21.499Z,13.60
2019-05-22T13:09:49.200Z,13.67
2019-05-22T13:12:16.452Z,13.10
2019-05-22T13:14:44.307Z,13.80
2019-05-22T13:17:14.380Z,14.23
2019-05-22T13:19:42.325Z,14.07
2019-05-22T13:22:13.880Z,12.87
2019-05-22T13:24:43.051Z,12.23
2019-05-22T13:27:12.967Z,12.97
2019-05-22T13:29:40.349Z,12.93
2019-05-22T13:32:09.838Z,13.00
2019-05-22T13:34:38.548Z,13.93
2019-05-22T13:37:08.376Z,14.40
2019-05-22T13:39:35.833Z,14.70
2019-05-22T13:42:03.445Z,13.67
2019-05-22T13:44:31.045Z,14.63
2019-05-22T13:46:58.820Z,14.47
2019-05-22T13:49:27.987Z,15.13
2019-05-22T13:51:55.176Z,14.77
2019-05-22T13:54:23.048Z,14.47
2019-05-22T13:56:50.611Z,14.30
2019-05-22T13:59:18.273Z,14.00
2019-05-22T14:01:45.438Z,14.73
2019-05-22T14:04:13.329Z,13.33
2019-05-22T14:06:40.888Z,13.50
2019-05-22T14:09:10.485Z,13.10
2019-05-22T14:11:37.956Z,12.07
2019-05-22T14:14:05.434Z,11.23
2019-05-22T14:16:47.663Z,9.47
2019-05-22T14:19:02.306Z,8.50
2019-05-22T14:21:29.532Z,8.97
2019-05-22T14:23:57.104Z,10.80
2019-05-22T14:26:24.578Z,10.87
2019-05-22T14:28:52.037Z,11.40
2019-05-22T14:31:19.905Z,11.13
2019-05-22T14:33:47.345Z,13.10
2019-05-22T14:36:14.496Z,12.93
2019-05-22T14:38:42.693Z,13.43
2019-05-22T14:41:10.201Z,13.10
2019-05-22T14:43:37.449Z,13.80
2019-05-22T14:46:05.822Z,15.33
2019-05-22T14:48:33.805Z,13.43
2019-05-22T14:51:00.986Z,12.60
2019-05-22T14:53:29.130Z,15.47
2019-05-22T14:55:58.172Z,14.73
2019-05-22T14:58:26.063Z,15.17
2019-05-22T15:00:53.530Z,14.70
2019-05-22T15:03:22.600Z,15.23
2019-05-22T15:05:50.873Z,13.83
2019-05-22T15:08:18.256Z,13.53
2019-05-22T15:10:45.809Z,11.03
2019-05-22T15:13:13.287Z,9.23
2019-05-22T15:15:41.042Z,9.53
2019-05-22T15:18:10.168Z,8.87
2019-05-22T15:21:32.211Z,9.00
2019-05-22T15:24:00.368Z,8.37
2019-05-22T15:26:29.125Z,8.90
2019-05-22T15:28:56.393Z,10.33
2019-05-22T15:31:23.524Z,9.40
2019-05-22T15:33:50.812Z,9.55
2019-05-22T15:36:20.928Z,10.90
2019-05-22T15:38:49.216Z,9.67
2019-05-22T15:41:17.085Z,8.27
2019-05-22T15:43:51.540Z,8.33
2019-05-22T15:46:17.742Z,8.87
2019-05-22T15:48:47.135Z,9.00
2019-05-22T15:51:18.608Z,9.33
2019-05-22T15:53:47.069Z,10.07
2019-05-22T15:56:14.648Z,10.83
2019-05-22T15:58:46.949Z,10.70
2019-05-22T16:01:17.191Z,10.63
2019-05-22T16:03:46.171Z,11.00
2019-05-22T16:06:14.196Z,11.30
2019-05-22T16:08:42.408Z,11.13
2019-05-22T16:11:13.688Z,10.77
2019-05-22T16:13:43.152Z,12.80
2019-05-22T16:16:12.633Z,13.40
2019-05-22T16:18:43.091Z,13.27
2019-05-22T16:21:11.648Z,12.00
2019-05-22T16:23:42.428Z,12.33
2019-05-22T16:26:12.035Z,11.77
2019-05-22T16:28:41.613Z,11.50
2019-05-22T16:31:11.669Z,11.80
2019-05-22T16:33:40.893Z,11.63
2019-05-22T16:36:09.004Z,10.50
2019-05-22T16:38:37.756Z,10.97
2019-05-22T16:41:05.316Z,11.43
2019-05-22T16:43:48.216Z,9.73
2019-05-22T16:46:06.352Z,10.03
2019-05-22T16:48:36.252Z,9.57
2019-05-22T16:51:03.562Z,9.07
2019-05-22T16:53:32.341Z,8.67
2019-05-22T16:56:00.797Z,9.17
2019-05-22T16:58:28.869Z,7.37
2019-05-22T17:00:57.531Z,7.60
2019-05-22T17:03:26.877Z,6.80
2019-05-22T17:05:54.424Z,6.63
2019-05-22T17:08:22.008Z,6.17
2019-05-22T17:11:21.794Z,6.30
2019-05-22T17:13:50.224Z,5.50
2019-05-22T17:16:17.788Z,5.27
2019-05-22T17:18:48.009Z,4.73
2019-05-22T17:21:16.121Z,5.00
2019-05-22T17:23:44.076Z,4.67
2019-05-22T17:26:12.241Z,5.07
2019-05-22T17:28:40.009Z,6.20
2019-05-22T17:31:07.648Z,6.60
2019-05-22T17:33:34.828Z,7.40
2019-05-22T17:36:05.555Z,6.27
2019-05-22T17:38:32.893Z,5.97
2019-05-22T17:41:02.472Z,6.70
2019-05-22T17:43:31.495Z,6.90
2019-05-22T17:45:58.984Z,6.53
2019-05-22T17:48:26.844Z,6.70
2019-05-22T17:50:55.630Z,5.80
2019-05-22T17:53:23.324Z,5.97
2019-05-22T17:55:50.617Z,5.83
2019-05-22T17:58:17.893Z,5.77
2019-05-22T18:00:47.527Z,6.10
2019-05-22T18:03:16.924Z,6.10
2019-05-22T18:05:44.805Z,6.17
2019-05-22T18:08:13.483Z,6.10
2019-05-22T18:10:44.553Z,6.23
2019-05-22T18:13:13.733Z,5.40
2019-05-22T18:15:41.562Z,5.70
2019-05-22T18:18:09.840Z,5.80
2019-05-22T18:20:43.324Z,5.30
2019-05-22T18:23:06.525Z,5.70
2019-05-22T18:25:34.570Z,5.53
2019-05-22T18:28:03.757Z,5.63
2019-05-22T18:30:33.440Z,5.60
2019-05-22T18:33:01.020Z,5.73
2019-05-22T18:35:28.596Z,5.90
2019-05-22T18:37:56.151Z,5.53
2019-05-22T18:40:23.324Z,5.70
2019-05-22T18:42:50.510Z,7.20
2019-05-22T18:45:19.580Z,6.50
2019-05-22T18:47:47.555Z,7.20
2019-05-22T18:50:15.812Z,7.20
2019-05-22T18:52:46.995Z,7.50
2019-05-22T18:55:15.547Z,6.80
2019-05-22T18:57:43.130Z,6.87
2019-05-22T19:00:10.485Z,6.27
2019-05-22T19:02:38.044Z,7.00
2019-05-22T19:05:06.353Z,6.43
2019-05-22T19:07:34.615Z,6.17
2019-05-22T19:10:02.020Z,6.00
2019-05-22T19:12:29.892Z,6.43
2019-05-22T19:14:57.059Z,6.20
2019-05-22T19:17:24.344Z,6.10
2019-05-22T19:19:51.689Z,6.13
2019-05-22T19:22:19.397Z,5.30
2019-05-22T19:24:46.547Z,5.60
2019-05-22T19:27:13.693Z,6.00
2019-05-22T19:29:40.852Z,5.17
2019-05-22T19:32:08.235Z,5.20
2019-05-22T19:34:35.509Z,4.87
2019-05-22T19:37:02.785Z,5.73
2019-05-22T19:39:30.652Z,5.20
2019-05-22T19:42:03.641Z,5.63
2019-05-22T19:44:26.995Z,5.13
2019-05-22T19:46:54.776Z,5.93
2019-05-22T19:49:22.061Z,5.23
2019-05-22T19:51:50.040Z,5.57
2019-05-22T19:54:17.857Z,5.50
2019-05-22T19:56:44.936Z,5.60
2019-05-22T19:59:12.823Z,5.30
2019-05-22T20:01:41.019Z,5.80
2019-05-22T20:04:08.960Z,5.10
2019-05-22T20:06:38.383Z,5.30
2019-05-22T20:09:09.128Z,5.13
2019-05-22T20:11:37.378Z,5.07
2019-05-22T20:14:04.746Z,5.80
2019-05-22T20:16:32.006Z,5.10
2019-05-22T20:18:59.864Z,5.30
2019-05-22T20:21:27.743Z,4.90
2019-05-22T20:23:54.942Z,5.53
2019-05-22T20:26:23.404Z,5.17
2019-05-22T20:28:50.776Z,5.33
2019-05-22T20:31:18.456Z,4.73
2019-05-22T20:33:45.727Z,5.10
2019-05-22T20:36:13.745Z,5.20
2019-05-22T20:38:41.115Z,4.10
2019-05-22T20:41:08.582Z,4.40
2019-05-22T20:43:37.592Z,4.20
2019-05-22T20:46:05.044Z,4.30
2019-05-22T20:48:34.652Z,4.37
2019-05-22T20:51:02.925Z,4.80
2019-05-22T20:53:31.136Z,4.33
2019-05-22T20:55:59.505Z,4.83
2019-05-22T20:58:29.889Z,4.80
2019-05-22T21:00:57.801Z,4.93
2019-05-22T21:03:25.500Z,4.77
2019-05-22T21:06:12.518Z,4.90
2019-05-22T21:08:42.602Z,4.80
2019-05-22T21:11:11.696Z,4.80
2019-05-22T21:13:39.170Z,4.90
2019-05-22T21:16:07.305Z,4.27
2019-05-22T21:18:39.681Z,4.73
2019-05-22T21:21:07.616Z,5.10
2019-05-22T21:23:35.149Z,4.90
2019-05-22T21:26:02.349Z,5.20
2019-05-22T21:28:30.004Z,4.67
2019-05-22T21:30:57.810Z,4.70
2019-05-22T21:33:25.161Z,4.30
2019-05-22T21:35:53.618Z,4.70
2019-05-22T21:38:20.921Z,4.43
2019-05-22T21:40:47.986Z,5.23
2019-05-22T21:43:16.364Z,5.27
2019-05-22T21:45:43.520Z,5.20
2019-05-22T21:48:10.689Z,4.83
2019-05-22T21:50:38.438Z,4.77
2019-05-22T21:53:10.916Z,5.07
2019-05-22T21:55:38.805Z,4.83
2019-05-22T21:58:06.468Z,5.23
2019-05-22T22:00:50.289Z,5.60
2019-05-22T22:03:21.052Z,4.97
2019-05-22T22:05:48.917Z,5.40
2019-05-22T22:08:17.591Z,5.13
2019-05-22T22:10:46.272Z,5.37
2019-05-22T22:13:14.929Z,4.90
2019-05-22T22:15:42.857Z,5.00
2019-05-22T22:18:11.520Z,5.10
2019-05-22T22:20:39.389Z,5.60
2019-05-22T22:23:07.229Z,5.33
2019-05-22T22:25:35.093Z,5.40
2019-05-22T22:28:02.248Z,5.77
2019-05-22T22:30:36.331Z,5.50
2019-05-22T22:33:08.376Z,5.30
2019-05-22T22:35:36.835Z,5.50
2019-05-22T22:38:04.303Z,5.83
2019-05-22T22:40:33.380Z,5.40
2019-05-22T22:43:02.856Z,5.40
2019-05-22T22:45:41.043Z,5.53
2019-05-22T22:48:09.304Z,5.63
2019-05-22T22:50:37.584Z,5.00
2019-05-22T22:53:07.792Z,5.07
2019-05-22T22:55:39.059Z,5.37
2019-05-22T22:58:16.516Z,5.57
2019-05-22T23:00:40.406Z,5.30
2019-05-22T23:03:12.423Z,5.83
2019-05-22T23:05:41.609Z,5.77
2019-05-22T23:08:13.871Z,5.53
2019-05-22T23:10:41.748Z,5.50
2019-05-22T23:13:10.513Z,5.67
2019-05-22T23:15:37.704Z,5.77
2019-05-22T23:18:05.759Z,5.47
2019-05-22T23:20:33.364Z,5.10
2019-05-22T23:22:59.781Z,5.53
2019-05-22T23:25:27.318Z,5.70
2019-05-22T23:27:55.206Z,5.20
2019-05-22T23:30:24.396Z,5.93
2019-05-22T23:32:53.820Z,6.40
2019-05-22T23:35:23.993Z,5.70
2019-05-22T23:37:51.261Z,5.60
2019-05-22T23:40:24.812Z,6.30
2019-05-22T23:42:54.280Z,6.00
2019-05-22T23:45:22.177Z,6.00
2019-05-22T23:48:15.534Z,6.47
2019-05-22T23:50:44.101Z,5.87
2019-05-22T23:53:13.183Z,6.40
2019-05-22T23:55:42.374Z,5.43
2019-05-22T23:58:12.049Z,6.20
